Time;durP1;ratioP1;P1;durP2;ratioP2;P2;SDS_P1;SDS_P2;PMS_P1;PMS_P2;Temp;Humidity;BMP_temperature;BMP_pressure;BME280_temperature;BME280_humidity;BME280_pressure;Samples;Min_cycle;Max_cycle;Signal;HPM_P1;HPM_P2
2022/11/21 00:01:59;;;;;;;21.42;10.70;;;;;;;-1.68;100.00;100200.56;7390789;19;20190;-57
2022/11/21 00:04:29;;;;;;;24.48;10.52;;;;;;;-1.69;100.00;100205.50;7392142;19;20148;-58
2022/11/21 00:06:58;;;;;;;17.45;8.27;;;;;;;-1.66;100.00;100200.66;7391394;19;20200;-58
2022/11/21 00:09:28;;;;;;;14.05;8.40;;;;;;;-1.74;100.00;100205.13;7390621;19;20130;-58
2022/11/21 00:12:00;;;;;;;16.63;8.35;;;;;;;-1.83;100.00;100199.28;7387174;19;20600;-59
2022/11/21 00:14:30;;;;;;;27.83;12.52;;;;;;;-1.74;100.00;100206.75;7391941;19;20130;-55
2022/11/21 00:16:59;;;;;;;23.67;12.25;;;;;;;-1.70;100.00;100209.66;7388852;19;20190;-55
2022/11/21 00:19:29;;;;;;;25.85;13.25;;;;;;;-1.69;100.00;100208.00;7391283;19;20127;-61
2022/11/21 00:21:58;;;;;;;30.70;14.05;;;;;;;-1.70;100.00;100204.59;7388453;19;20198;-59
2022/11/21 00:24:27;;;;;;;23.00;11.15;;;;;;;-1.78;100.00;100198.88;7391668;19;20150;-56
2022/11/21 00:27:00;;;;;;;30.17;14.90;;;;;;;-1.80;100.00;100194.50;7387850;19;20198;-58
2022/11/21 00:29:29;;;;;;;21.70;11.00;;;;;;;-1.87;100.00;100202.31;7390174;19;20147;-54
2022/11/21 00:31:59;;;;;;;15.93;9.48;;;;;;;-1.94;100.00;100206.00;7388202;19;20186;-56
2022/11/21 00:34:29;;;;;;;17.30;9.50;;;;;;;-1.89;100.00;100189.56;7391441;19;20154;-58
2022/11/21 00:36:58;;;;;;;16.90;9.68;;;;;;;-1.86;100.00;100194.00;7386317;19;20193;-55
2022/11/21 00:39:28;;;;;;;15.48;9.00;;;;;;;-1.87;100.00;100188.03;7393056;19;20138;-58
2022/11/21 00:42:00;;;;;;;15.40;9.27;;;;;;;-1.82;100.00;100188.41;7387604;19;20577;-59
2022/11/21 00:44:30;;;;;;;25.38;12.10;;;;;;;-1.87;100.00;100182.97;7391828;19;20632;-58
2022/11/21 00:47:00;;;;;;;20.08;10.60;;;;;;;-1.88;100.00;100181.22;7390910;19;20182;-58
2022/11/21 00:49:29;;;;;;;26.85;13.90;;;;;;;-1.98;100.00;100178.66;7392398;19;20155;-58
2022/11/21 00:51:59;;;;;;;25.15;12.05;;;;;;;-2.10;100.00;100181.94;7386789;19;20215;-55
2022/11/21 00:54:28;;;;;;;22.95;11.57;;;;;;;-2.13;100.00;100171.59;7391815;19;20127;-55
2022/11/21 00:57:00;;;;;;;20.92;10.80;;;;;;;-2.19;100.00;100178.66;7388320;19;20198;-55
2022/11/21 00:59:30;;;;;;;19.33;10.48;;;;;;;-2.20;100.00;100175.25;7394052;19;20146;-60
2022/11/21 01:02:00;;;;;;;29.38;14.32;;;;;;;-2.26;100.00;100171.34;7388264;19;20190;-60
2022/11/21 01:04:32;;;;;;;27.48;13.75;;;;;;;-2.31;100.00;100169.28;7391460;19;20154;-55
2022/11/21 01:07:02;;;;;;;20.92;11.65;;;;;;;-2.44;100.00;100163.97;7386881;19;20677;-61
2022/11/21 01:09:32;;;;;;;18.05;10.45;;;;;;;-2.43;100.00;100173.31;7389460;19;20133;-60
2022/11/21 01:12:04;;;;;;;22.38;11.02;;;;;;;-2.46;100.00;100175.59;7388330;19;20209;-60
2022/11/21 01:14:33;;;;;;;20.73;11.10;;;;;;;-2.49;100.00;100167.75;7390788;19;20127;-57
2022/11/21 01:17:03;;;;;;;26.88;12.25;;;;;;;-2.46;100.00;100173.94;7390602;19;20624;-57
2022/11/21 01:19:32;;;;;;;23.63;12.32;;;;;;;-2.64;100.00;100177.44;7389806;19;20529;-57
2022/11/21 01:22:02;;;;;;;24.30;14.20;;;;;;;-2.74;100.00;100170.72;7389008;19;20692;-59
2022/11/21 01:24:31;;;;;;;24.20;12.85;;;;;;;-2.79;100.00;100174.47;7390472;19;20127;-57
2022/11/21 01:27:03;;;;;;;20.00;11.30;;;;;;;-2.78;100.00;100166.16;7387155;19;20205;-56
2022/11/21 01:29:33;;;;;;;31.95;15.05;;;;;;;-2.78;100.00;100158.59;7394085;19;20123;-58
2022/11/21 01:32:02;;;;;;;27.30;13.77;;;;;;;-2.73;100.00;100157.31;7397363;19;20166;-58
2022/11/21 01:34:32;;;;;;;26.52;13.77;;;;;;;-2.72;100.00;100149.03;7398007;19;20127;-58
2022/11/21 01:37:01;;;;;;;24.10;12.65;;;;;;;-2.65;100.00;100148.78;7394047;19;20190;-56
2022/11/21 01:39:31;;;;;;;23.20;12.80;;;;;;;-2.64;100.00;100148.03;7399216;19;20489;-58
2022/11/21 01:42:00;;;;;;;27.15;12.43;;;;;;;-2.73;100.00;100159.84;7394715;19;20217;-57
2022/11/21 01:44:52;;;;;;;32.88;13.40;;;;;;;-2.74;100.00;100151.41;7398167;19;20138;-59
2022/11/21 01:47:22;;;;;;;25.50;12.85;;;;;;;-2.67;100.00;100152.78;7395401;19;20222;-59
2022/11/21 01:49:53;;;;;;;26.30;13.27;;;;;;;-2.68;100.00;100145.97;7396729;19;20159;-53
2022/11/21 01:52:24;;;;;;;24.80;11.95;;;;;;;-2.68;100.00;100147.63;7396850;19;20158;-56
2022/11/21 01:54:56;;;;;;;22.40;11.30;;;;;;;-2.66;100.00;100143.59;7397104;19;20135;-54
2022/11/21 01:57:29;;;;;;;19.98;10.48;;;;;;;-2.66;100.00;100139.44;7396801;19;20130;-55
2022/11/21 02:00:03;;;;;;;21.25;10.00;;;;;;;-2.73;100.00;100142.16;7397079;19;20494;-58
2022/11/21 02:02:35;;;;;;;25.98;11.05;;;;;;;-2.76;100.00;100144.44;7396603;19;20616;-58
2022/11/21 02:05:07;;;;;;;22.88;11.00;;;;;;;-2.73;100.00;100145.59;7396928;19;20749;-59
2022/11/21 02:07:41;;;;;;;19.83;10.63;;;;;;;-2.72;100.00;100146.50;7396015;19;20151;-58
2022/11/21 02:10:12;;;;;;;21.92;11.90;;;;;;;-2.73;100.00;100143.06;7395543;19;20203;-58
2022/11/21 02:12:45;;;;;;;17.08;9.75;;;;;;;-2.80;100.00;100149.97;7394646;19;20166;-56
2022/11/21 02:15:17;;;;;;;18.83;10.70;;;;;;;-2.63;100.00;100147.25;7388591;19;20131;-59
2022/11/21 02:17:47;;;;;;;21.15;9.80;;;;;;;-2.70;100.00;100150.03;7398604;19;20162;-56
2022/11/21 02:20:17;;;;;;;16.80;9.02;;;;;;;-2.83;100.00;100150.59;7400456;19;20549;-58
2022/11/21 02:22:53;;;;;;;19.35;10.15;;;;;;;-2.97;100.00;100156.13;7395200;19;20170;-57
2022/11/21 02:25:27;;;;;;;18.73;9.02;;;;;;;-3.01;100.00;100154.97;7394152;19;20197;-57
2022/11/21 02:28:00;;;;;;;15.82;8.93;;;;;;;-3.06;100.00;100148.63;7395518;19;20504;-58
2022/11/21 02:30:30;;;;;;;15.73;8.70;;;;;;;-3.02;100.00;100143.09;7394315;19;20134;-55
2022/11/21 02:33:00;;;;;;;17.30;9.57;;;;;;;-2.99;100.00;100149.31;7394273;19;20158;-57
2022/11/21 02:35:30;;;;;;;15.63;8.82;;;;;;;-3.13;100.00;100145.56;7395938;19;20158;-58
2022/11/21 02:38:01;;;;;;;17.85;8.27;;;;;;;-3.23;100.00;100143.00;7395339;19;20146;-55
2022/11/21 02:40:35;;;;;;;16.08;9.10;;;;;;;-3.25;100.00;100144.50;7398731;19;20153;-55
2022/11/21 02:43:09;;;;;;;15.60;8.63;;;;;;;-3.35;100.00;100149.53;7394425;19;21001;-59
2022/11/21 02:45:41;;;;;;;23.10;11.20;;;;;;;-3.23;100.00;100143.00;7395373;19;20126;-60
2022/11/21 02:48:11;;;;;;;18.15;9.10;;;;;;;-3.20;100.00;100143.28;7395211;19;20142;-58
2022/11/21 02:50:42;;;;;;;15.55;9.25;;;;;;;-3.34;100.00;100141.19;7392640;19;20187;-59
2022/11/21 02:53:13;;;;;;;20.70;10.55;;;;;;;-3.34;100.00;100143.72;7393988;19;20163;-58
2022/11/21 02:55:45;;;;;;;19.63;9.38;;;;;;;-3.48;100.00;100137.47;7395016;19;20138;-54
2022/11/21 02:58:14;;;;;;;19.13;8.95;;;;;;;-3.43;100.00;100134.56;7394245;19;20134;-58
2022/11/21 03:00:44;;;;;;;17.10;9.98;;;;;;;-3.41;100.00;100127.16;7394833;19;20131;-59
2022/11/21 03:03:13;;;;;;;20.08;9.65;;;;;;;-3.39;100.00;100126.53;7398153;19;20166;-61
2022/11/21 03:05:43;;;;;;;16.83;9.00;;;;;;;-3.29;100.00;100122.28;7394724;19;20130;-57
2022/11/21 03:08:14;;;;;;;17.90;9.85;;;;;;;-3.18;100.00;100121.56;7394151;19;20135;-57
2022/11/21 03:10:46;;;;;;;19.48;10.77;;;;;;;-3.41;100.00;100128.06;7392527;19;20142;-57
2022/11/21 03:13:15;;;;;;;17.10;9.35;;;;;;;-3.54;100.00;100127.72;7393211;19;20162;-59
2022/11/21 03:15:45;;;;;;;22.33;10.45;;;;;;;-3.64;100.00;100120.09;7396034;19;20936;-54
2022/11/21 03:18:15;;;;;;;19.60;10.48;;;;;;;-3.77;100.00;100116.50;7393978;19;20131;-56
2022/11/21 03:20:44;;;;;;;17.15;9.65;;;;;;;-3.78;100.00;100112.19;7393931;19;20131;-59
2022/11/21 03:23:14;;;;;;;18.75;9.32;;;;;;;-3.71;100.00;100114.50;7393037;19;20173;-55
2022/11/21 03:25:46;;;;;;;16.83;9.02;;;;;;;-3.74;100.00;100101.59;7394019;19;20486;-61
2022/11/21 03:28:16;;;;;;;17.30;8.95;;;;;;;-3.75;100.00;100104.88;7393320;19;20123;-57
2022/11/21 03:30:45;;;;;;;19.52;9.00;;;;;;;-3.72;100.00;100107.69;7392707;19;20614;-61
2022/11/21 03:33:15;;;;;;;19.83;9.48;;;;;;;-3.73;100.00;100103.41;7392728;19;20203;-61
2022/11/21 03:35:45;;;;;;;18.15;9.68;;;;;;;-3.83;100.00;100110.91;7393265;19;20127;-60
2022/11/21 03:38:14;;;;;;;17.58;9.63;;;;;;;-3.87;100.00;100109.75;7391174;19;20190;-60
2022/11/21 03:40:46;;;;;;;32.47;14.35;;;;;;;-3.75;100.00;100109.94;7397246;19;20130;-56
2022/11/21 03:43:16;;;;;;;16.20;9.25;;;;;;;-3.71;100.00;100111.09;7389559;19;20202;-60
2022/11/21 03:45:47;;;;;;;19.13;9.65;;;;;;;-3.82;100.00;100111.03;7395424;19;20524;-59
2022/11/21 03:48:17;;;;;;;19.02;9.93;;;;;;;-3.82;100.00;100111.03;7389915;19;20194;-61
2022/11/21 03:50:46;;;;;;;18.58;10.23;;;;;;;-3.78;100.00;100104.63;7391705;19;20492;-60
2022/11/21 03:53:16;;;;;;;22.33;10.55;;;;;;;-3.76;100.00;100107.31;7389256;19;20202;-61
2022/11/21 03:55:48;;;;;;;24.02;11.93;;;;;;;-3.77;100.00;100116.50;7395713;19;20145;-60
2022/11/21 03:58:18;;;;;;;17.90;10.00;;;;;;;-3.83;100.00;100110.91;7392915;19;20144;-61
2022/11/21 04:00:49;;;;;;;19.27;11.02;;;;;;;-3.73;100.00;100110.97;7393931;19;20197;-60
2022/11/21 04:03:20;;;;;;;21.42;10.88;;;;;;;-3.72;100.00;100110.22;7396545;19;20185;-58
2022/11/21 04:05:49;;;;;;;23.05;11.70;;;;;;;-3.77;100.00;100108.91;7390357;19;20221;-59
2022/11/21 04:08:19;;;;;;;16.75;9.40;;;;;;;-3.89;100.00;100115.41;7392002;19;20139;-58
2022/11/21 04:10:52;;;;;;;21.92;10.93;;;;;;;-3.99;100.00;100113.69;7388637;19;20190;-56
2022/11/21 04:13:21;;;;;;;23.95;11.35;;;;;;;-3.97;100.00;100122.25;7388719;19;20170;-60
2022/11/21 04:15:51;;;;;;;21.10;11.15;;;;;;;-3.97;100.00;100118.13;7387335;19;20226;-57
2022/11/21 04:18:20;;;;;;;23.02;11.35;;;;;;;-3.92;100.00;100121.03;7389668;19;20206;-60
2022/11/21 04:20:50;;;;;;;25.52;11.73;;;;;;;-3.96;100.00;100114.84;7388571;19;20617;-60
2022/11/21 04:23:19;;;;;;;27.35;12.50;;;;;;;-4.03;100.00;100126.75;7389128;19;20530;-60
2022/11/21 04:25:51;;;;;;;21.80;10.75;;;;;;;-4.03;100.00;100124.22;7386097;19;20705;-57
2022/11/21 04:28:21;;;;;;;21.73;10.52;;;;;;;-4.08;100.00;100123.81;7389884;19;20154;-58
2022/11/21 04:30:51;;;;;;;23.60;11.68;;;;;;;-4.14;100.00;100129.22;7386637;19;20198;-56
2022/11/21 04:33:23;;;;;;;20.33;10.38;;;;;;;-4.12;100.00;100126.81;7388930;19;20159;-59
2022/11/21 04:35:53;;;;;;;21.83;11.00;;;;;;;-4.06;100.00;100127.38;7388259;19;20281;-57
2022/11/21 04:38:22;;;;;;;23.10;10.93;;;;;;;-4.00;100.00;100129.56;7389517;19;20629;-55
2022/11/21 04:40:54;;;;;;;24.88;12.45;;;;;;;-3.98;100.00;100126.44;7385928;19;20202;-56
2022/11/21 04:43:24;;;;;;;21.60;11.77;;;;;;;-3.95;100.00;100136.78;7389322;19;20170;-57
2022/11/21 04:45:53;;;;;;;23.88;11.52;;;;;;;-3.97;100.00;100138.28;7387586;19;20222;-56
2022/11/21 04:48:23;;;;;;;22.67;11.63;;;;;;;-4.02;100.00;100134.47;7390151;19;20127;-59
2022/11/21 04:50:53;;;;;;;22.30;10.50;;;;;;;-4.11;100.00;100141.22;7387879;19;20202;-59
2022/11/21 04:53:22;;;;;;;20.20;9.75;;;;;;;-4.15;100.00;100136.63;7389213;19;20182;-56
2022/11/21 04:55:54;;;;;;;23.30;10.98;;;;;;;-4.13;100.00;100135.13;7384140;19;20198;-56
2022/11/21 04:58:23;;;;;;;22.15;12.00;;;;;;;-4.12;100.00;100141.94;7389626;19;20155;-56
2022/11/21 05:00:53;;;;;;;23.83;11.05;;;;;;;-4.06;100.00;100142.50;7387168;19;20198;-59
2022/11/21 05:03:22;;;;;;;24.23;11.85;;;;;;;-3.99;100.00;100144.84;7390932;19;20170;-60
2022/11/21 05:05:52;;;;;;;24.25;11.60;;;;;;;-4.01;100.00;100141.28;7396107;19;20214;-60
2022/11/21 05:08:21;;;;;;;25.90;12.00;;;;;;;-3.99;100.00;100137.28;7399069;19;20142;-59
2022/11/21 05:13:35;;;;;;;24.95;11.95;;;;;;;-3.97;100.00;100133.25;7395549;19;20162;-60
2022/11/21 05:16:05;;;;;;;21.70;10.95;;;;;;;-4.00;100.00;100139.66;7395055;19;20233;-58
2022/11/21 05:18:34;;;;;;;22.90;11.80;;;;;;;-3.90;100.00;100136.31;7397635;19;20127;-56
2022/11/21 05:21:04;;;;;;;22.92;12.35;;;;;;;-3.84;100.00;100144.44;7395419;19;20197;-55
2022/11/21 05:23:34;;;;;;;20.65;11.45;;;;;;;-3.88;100.00;100139.84;7395590;19;20166;-58
2022/11/21 05:26:06;;;;;;;23.40;11.93;;;;;;;-4.04;100.00;100143.53;7395458;19;20928;-58
2022/11/21 05:28:35;;;;;;;28.25;12.93;;;;;;;-4.10;100.00;100145.50;7396786;19;20134;-57
2022/11/21 05:31:05;;;;;;;22.27;11.18;;;;;;;-4.12;100.00;100145.34;7394863;19;20187;-58
2022/11/21 05:33:34;;;;;;;25.98;12.30;;;;;;;-3.94;100.00;100148.63;7395493;19;20173;-59
2022/11/21 05:36:04;;;;;;;21.77;11.05;;;;;;;-3.80;100.00;100146.44;7395269;19;20186;-56
2022/11/21 05:38:33;;;;;;;19.90;10.57;;;;;;;-3.79;100.00;100148.25;7401456;19;20135;-61
2022/11/21 05:41:02;;;;;;;22.17;11.32;;;;;;;-3.77;100.00;100151.78;7395009;19;20190;-59
2022/11/21 05:46:17;;;;;;;33.40;14.70;;;;;;;-3.13;100.00;100130.44;7396423;19;20206;-58
2022/11/21 05:48:48;;;;;;;27.67;13.00;;;;;;;-3.58;100.00;100138.28;7394433;19;20123;-60
2022/11/21 05:51:18;;;;;;;22.88;11.63;;;;;;;-3.91;100.00;100139.59;7396192;19;20478;-55
2022/11/21 05:53:48;;;;;;;22.17;12.40;;;;;;;-4.11;100.00;100144.59;7384851;19;20162;-55
2022/11/21 05:56:19;;;;;;;27.10;12.52;;;;;;;-4.14;100.00;100149.38;7396442;19;20154;-59
2022/11/21 05:58:51;;;;;;;26.80;13.27;;;;;;;-4.16;100.00;100160.06;7394122;19;20127;-56
2022/11/21 06:03:25;;;;;;;23.38;11.50;;;;;;;-4.21;100.00;100158.00;7396339;19;20153;-55
2022/11/21 06:04:09;;;;;;;26.40;12.27;;;;;;;-4.21;100.00;100160.53;7393564;19;20564;-56
2022/11/21 06:06:38;;;;;;;22.33;11.48;;;;;;;-4.15;100.00;100147.56;7391747;19;20155;-59
2022/11/21 06:09:08;;;;;;;26.70;12.80;;;;;;;-4.21;100.00;100155.47;7397068;19;20191;-58
2022/11/21 06:11:37;;;;;;;25.13;11.95;;;;;;;-4.21;100.00;100142.88;7395781;19;20639;-59
2022/11/21 06:14:09;;;;;;;43.58;16.95;;;;;;;-4.09;100.00;100144.75;7390916;19;20874;-57
2022/11/21 06:16:39;;;;;;;23.50;11.70;;;;;;;-4.18;100.00;100153.97;7396168;19;20147;-57
2022/11/21 06:19:08;;;;;;;25.25;13.10;;;;;;;-4.21;100.00;100141.97;7393277;19;20190;-58
2022/11/21 06:21:38;;;;;;;25.10;12.82;;;;;;;-4.20;100.00;100142.13;7395768;19;20131;-60
2022/11/21 06:24:09;;;;;;;27.58;13.48;;;;;;;-4.22;100.00;100133.56;7391398;19;20198;-58
2022/11/21 06:26:38;;;;;;;29.65;13.02;;;;;;;-4.21;100.00;100139.47;7395452;19;20154;-61
2022/11/21 06:29:12;;;;;;;32.35;13.27;;;;;;;-4.19;100.00;100135.47;7392964;19;20194;-59
2022/11/21 06:31:41;;;;;;;31.92;13.05;;;;;;;-4.20;100.00;100131.19;7395479;19;20253;-58
2022/11/21 06:34:11;;;;;;;35.45;16.02;;;;;;;-4.22;100.00;100133.56;7391586;19;20546;-61
2022/11/21 06:36:40;;;;;;;29.98;14.95;;;;;;;-4.22;100.00;100136.06;7395515;19;20146;-61
2022/11/21 06:39:10;;;;;;;30.95;14.38;;;;;;;-4.26;100.00;100121.41;7393223;19;20533;-59
2022/11/21 06:41:39;;;;;;;34.45;16.00;;;;;;;-4.27;100.00;100131.34;7395154;19;20530;-58
2022/11/21 06:44:11;;;;;;;26.85;13.70;;;;;;;-4.38;100.00;100142.97;7391308;19;20228;-59
2022/11/21 06:46:41;;;;;;;33.83;14.90;;;;;;;-4.42;100.00;100136.78;7395774;19;20495;-59
2022/11/21 06:49:16;;;;;;;32.58;14.18;;;;;;;-4.44;100.00;100137.38;7391526;19;20224;-57
2022/11/21 06:51:46;;;;;;;54.63;16.58;;;;;;;-4.43;100.00;100137.53;7394747;19;20141;-61
2022/11/21 06:54:16;;;;;;;51.90;15.70;;;;;;;-4.44;100.00;100122.25;7391129;19;20578;-61
2022/11/21 06:56:45;;;;;;;42.33;16.05;;;;;;;-4.44;100.00;100132.34;7394311;19;20131;-57
2022/11/21 06:59:18;;;;;;;38.28;16.90;;;;;;;-4.43;100.00;100139.13;7392131;19;20217;-61
2022/11/21 07:01:47;;;;;;;36.28;15.65;;;;;;;-4.42;100.00;100135.91;7394660;19;20154;-60
2022/11/21 07:04:17;;;;;;;38.08;17.55;;;;;;;-4.32;100.00;100143.53;7392875;19;20222;-58
2022/11/21 07:06:46;;;;;;;38.22;16.63;;;;;;;-4.36;100.00;100141.50;7394462;19;20138;-62
2022/11/21 07:09:15;;;;;;;50.22;19.75;;;;;;;-4.37;100.00;100137.19;7392271;19;20637;-59
2022/11/21 07:13:20;;;;;;;38.88;15.40;;;;;;;-4.09;100.00;100132.16;7394226;19;20134;-56
2022/11/21 07:14:51;;;;;;;44.97;17.55;;;;;;;-4.20;100.00;100134.56;7391238;19;20194;-60
2022/11/21 07:17:20;;;;;;;36.55;16.58;;;;;;;-4.30;100.00;100139.53;7393998;19;20250;-59
2022/11/21 07:19:50;;;;;;;41.97;17.10;;;;;;;-4.24;100.00;100135.06;7391156;19;20190;-59
2022/11/21 07:22:19;;;;;;;40.03;16.92;;;;;;;-4.12;100.00;100131.84;7393425;19;20205;-56
2022/11/21 07:24:49;;;;;;;41.05;18.75;;;;;;;-3.99;100.00;100128.81;7390912;19;20556;-59
2022/11/21 07:27:18;;;;;;;40.17;18.50;;;;;;;-4.04;100.00;100130.94;7391976;19;20155;-59
2022/11/21 07:29:48;;;;;;;35.08;16.67;;;;;;;-4.09;100.00;100133.00;7389850;19;20407;-58
2022/11/21 07:32:20;;;;;;;32.25;16.90;;;;;;;-4.08;100.00;100129.78;7392851;19;20162;-56
2022/11/21 07:34:49;;;;;;;36.75;17.20;;;;;;;-4.07;100.00;100131.53;7393554;19;20190;-59
2022/11/21 07:37:18;;;;;;;38.95;17.90;;;;;;;-4.05;100.00;100129.16;7394446;19;20135;-59
2022/11/21 07:39:48;;;;;;;43.47;16.52;;;;;;;-4.03;100.00;100132.69;7390870;19;20190;-59
2022/11/21 07:42:17;;;;;;;41.58;16.80;;;;;;;-3.97;100.00;100133.25;7393155;19;20166;-57
2022/11/21 07:44:47;;;;;;;38.63;17.45;;;;;;;-3.91;100.00;100132.03;7388127;19;20229;-56
2022/11/21 07:47:16;;;;;;;39.65;17.65;;;;;;;-3.94;100.00;100130.13;7393322;19;20134;-58
2022/11/21 07:49:48;;;;;;;37.90;17.27;;;;;;;-3.84;100.00;100130.16;7389610;19;20214;-61
2022/11/21 07:52:18;;;;;;;37.35;16.58;;;;;;;-3.86;100.00;100128.25;7392927;19;20186;-54
2022/11/21 07:54:47;;;;;;;38.70;17.88;;;;;;;-3.84;100.00;100129.31;7383917;19;20521;-56
2022/11/21 07:57:16;;;;;;;35.60;16.05;;;;;;;-3.91;100.00;100120.28;7393502;19;20521;-59
2022/11/21 07:59:46;;;;;;;31.67;15.68;;;;;;;-3.84;100.00;100124.25;7387262;19;20691;-59
2022/11/21 08:02:20;;;;;;;34.65;15.15;;;;;;;-3.85;100.00;100128.41;7392771;19;20190;-60
2022/11/21 08:04:52;;;;;;;38.50;17.08;;;;;;;-3.86;100.00;100120.69;7389852;19;20194;-59
2022/11/21 08:07:23;;;;;;;37.85;15.75;;;;;;;-3.83;100.00;100126.94;7392362;19;20127;-56
2022/11/21 08:09:52;;;;;;;35.15;16.25;;;;;;;-3.84;100.00;100131.81;7390125;19;20200;-58
2022/11/21 08:12:22;;;;;;;39.08;17.10;;;;;;;-3.70;100.00;100126.34;7395309;19;20166;-57
2022/11/21 08:14:54;;;;;;;40.22;17.35;;;;;;;-3.68;100.00;100127.38;7389984;19;20293;-59
2022/11/21 08:17:23;;;;;;;39.90;17.42;;;;;;;-3.64;100.00;100128.53;7392805;19;20150;-62
2022/11/21 08:19:57;;;;;;;38.78;17.00;;;;;;;-3.67;100.00;100129.16;7389338;19;20202;-61
2022/11/21 08:22:26;;;;;;;42.08;16.42;;;;;;;-3.61;100.00;100128.81;7392258;19;20162;-61
2022/11/21 08:24:55;;;;;;;37.60;16.80;;;;;;;-3.54;100.00;100130.25;7390279;19;20198;-57
2022/11/21 08:27:25;;;;;;;34.70;15.45;;;;;;;-3.55;100.00;100128.44;7391955;19;20127;-61
2022/11/21 08:29:54;;;;;;;30.58;15.48;;;;;;;-3.47;100.00;100135.09;7389812;19;20217;-58
2022/11/21 08:32:24;;;;;;;31.05;15.75;;;;;;;-3.37;100.00;100123.25;7392030;19;20190;-59
2022/11/21 08:34:56;;;;;;;37.22;17.70;;;;;;;-3.32;100.00;100129.59;7388967;19;20194;-61
2022/11/21 08:37:25;;;;;;;32.85;15.57;;;;;;;-3.30;100.00;100131.50;7391193;19;20699;-61
2022/11/21 08:39:54;;;;;;;34.45;15.48;;;;;;;-3.32;100.00;100133.00;7389841;19;20190;-57
2022/11/21 08:42:24;;;;;;;31.08;15.20;;;;;;;-3.30;100.00;100135.66;7391453;19;20633;-60
2022/11/21 08:44:53;;;;;;;21.35;10.57;;;;;;;-3.34;100.00;100129.44;7389488;19;21051;-58
2022/11/21 08:47:23;;;;;;;32.85;14.05;;;;;;;-3.30;100.00;100136.53;7391131;19;20131;-59
2022/11/21 08:49:52;;;;;;;30.67;14.48;;;;;;;-3.37;100.00;100128.31;7388546;19;20190;-57
2022/11/21 08:52:24;;;;;;;36.05;16.42;;;;;;;-3.24;100.00;100131.13;7391012;19;20629;-60
2022/11/21 08:54:54;;;;;;;32.85;15.13;;;;;;;-3.28;100.00;100119.03;7387596;19;20190;-58
2022/11/21 08:57:23;;;;;;;29.83;14.65;;;;;;;-3.34;100.00;100123.53;7390959;19;20248;-59
2022/11/21 08:59:52;;;;;;;35.85;16.83;;;;;;;-3.22;100.00;100123.69;7388900;19;20194;-58
2022/11/21 09:02:22;;;;;;;23.25;11.60;;;;;;;-3.19;100.00;100123.97;7390696;19;20186;-60
2022/11/21 09:04:52;;;;;;;28.98;14.65;;;;;;;-3.10;100.00;100129.81;7387891;19;20704;-60
2022/11/21 09:07:24;;;;;;;31.48;14.13;;;;;;;-3.01;100.00;100125.56;7390818;19;20134;-60
2022/11/21 09:09:53;;;;;;;32.88;15.02;;;;;;;-2.94;100.00;100124.44;7388351;19;20207;-59
2022/11/21 09:12:23;;;;;;;26.85;13.77;;;;;;;-2.94;100.00;100129.50;7390440;19;20585;-59
2022/11/21 09:20:16;;;;;;;40.33;18.73;;;;;;;-2.58;100.00;100125.81;7383064;19;20699;-59
2022/11/21 09:22:48;;;;;;;25.92;13.07;;;;;;;-2.65;100.00;100141.19;7390521;19;20195;-56
2022/11/21 09:25:18;;;;;;;31.35;14.95;;;;;;;-2.48;100.00;100142.63;7391648;19;20194;-57
2022/11/21 09:27:48;;;;;;;23.88;10.75;;;;;;;-2.35;100.00;100147.03;7389903;19;20185;-54
2022/11/21 09:30:17;;;;;;;29.58;14.55;;;;;;;-2.31;100.00;100144.03;7390776;19;20186;-57
2022/11/21 09:32:47;;;;;;;26.75;13.43;;;;;;;-2.32;100.00;100157.41;7389098;19;20169;-58
2022/11/21 09:35:16;;;;;;;34.17;16.50;;;;;;;-2.14;100.00;100147.06;7388710;19;20182;-57
2022/11/21 09:37:50;;;;;;;35.00;15.73;;;;;;;-2.15;100.00;100145.31;7389916;19;20131;-58
2022/11/21 09:40:20;;;;;;;30.75;15.13;;;;;;;-2.12;100.00;100140.50;7387840;19;20190;-55
2022/11/21 09:43:05;;;;;;;29.88;14.52;;;;;;;-2.19;100.00;100148.31;7388794;19;20174;-51
2022/11/21 09:45:36;;;;;;;40.53;18.70;;;;;;;-2.10;100.00;100144.03;7387121;19;20230;-55
2022/11/21 09:48:10;;;;;;;32.50;14.88;;;;;;;-2.10;100.00;100153.25;7389636;19;20142;-54
2022/11/21 09:50:44;;;;;;;31.58;15.23;;;;;;;-2.01;100.00;100150.63;7391498;19;20201;-58
2022/11/21 09:53:39;;;;;;;35.40;15.63;;;;;;;-1.81;100.00;100153.13;7395275;19;20159;-56
2022/11/21 09:56:13;;;;;;;29.73;14.57;;;;;;;-1.64;100.00;100153.63;7397681;19;20186;-58
2022/11/21 09:58:44;;;;;;;38.10;17.85;;;;;;;-1.48;100.00;100158.28;7394485;19;20504;-54
2022/11/21 10:01:16;;;;;;;31.80;14.90;;;;;;;-1.32;100.00;100162.91;7396539;19;20202;-59
2022/11/21 10:03:48;;;;;;;28.77;13.55;;;;;;;-1.28;100.00;100159.84;7392669;19;20167;-58
2022/11/21 10:06:21;;;;;;;27.30;13.20;;;;;;;-1.19;100.00;100153.75;7399192;19;20493;-56
2022/11/21 10:08:58;;;;;;;30.98;14.48;;;;;;;-1.15;100.00;100163.34;7394072;19;20770;-55
2022/11/21 10:12:35;;;;;;;32.10;13.93;;;;;;;-1.05;100.00;100170.91;7396221;19;20130;-54
2022/11/21 10:14:38;;;;;;;24.50;11.50;;;;;;;-1.07;100.00;100180.06;7393431;19;20197;-56
2022/11/21 10:17:19;;;;;;;24.25;10.60;;;;;;;-1.02;100.00;100180.41;7396239;19;20501;-55
2022/11/21 10:20:09;;;;;;;23.95;11.88;;;;;;;-0.95;100.00;100182.66;7392803;19;20182;-56
2022/11/21 10:22:52;;;;;;;23.55;11.82;;;;;;;-0.92;100.00;100187.09;7398190;19;20158;-55
2022/11/21 10:25:26;;;;;;;23.55;12.23;;;;;;;-0.91;100.00;100198.97;7395963;19;20127;-55
2022/11/21 10:27:58;;;;;;;13.82;7.40;;;;;;;-1.09;100.00;100199.28;7396954;19;20135;-55
2022/11/21 10:30:28;;;;;;;21.40;10.10;;;;;;;-1.01;100.00;100198.25;7399416;19;20508;-58
2022/11/21 10:33:00;;;;;;;30.60;12.35;;;;;;;-0.90;100.00;100205.81;7394377;19;20159;-57
2022/11/21 10:35:35;;;;;;;22.42;10.05;;;;;;;-0.83;100.00;100210.59;7393525;19;20159;-54
2022/11/21 10:38:19;;;;;;;22.45;11.52;;;;;;;-0.74;100.00;100216.41;7399460;19;20148;-56
2022/11/21 10:40:53;;;;;;;30.17;11.25;;;;;;;-0.69;100.00;100212.56;7395171;19;20134;-56
2022/11/21 10:46:13;;;;;;;16.80;8.82;;;;;;;-0.76;100.00;100220.47;7393034;19;20219;-58
2022/11/21 10:48:42;;;;;;;20.65;10.18;;;;;;;-0.90;100.00;100224.44;7394152;19;20130;-58
2022/11/21 10:51:27;;;;;;;20.40;10.07;;;;;;;-0.64;100.00;100232.31;7392866;19;20292;-58
2022/11/21 10:56:53;;;;;;;23.60;11.73;;;;;;;-0.59;100.00;100233.56;7392615;19;20186;-55
2022/11/21 10:59:26;;;;;;;20.42;9.20;;;;;;;-0.73;100.00;100240.97;7394549;19;20131;-55
2022/11/21 11:02:01;;;;;;;18.63;10.10;;;;;;;-0.66;100.00;100236.38;7392501;19;20544;-57
2022/11/21 11:04:31;;;;;;;19.48;9.50;;;;;;;-0.72;100.00;100237.66;7393049;19;20123;-56
2022/11/21 11:07:25;;;;;;;23.45;9.80;;;;;;;-0.73;100.00;100233.38;7394991;19;20504;-54
2022/11/21 11:10:16;;;;;;;22.05;9.65;;;;;;;-0.34;100.00;100232.94;7392266;19;20201;-53
2022/11/21 11:16:00;;;;;;;17.45;9.40;;;;;;;-0.31;100.00;100234.03;7394326;19;20138;-56
2022/11/21 11:18:30;;;;;;;17.60;9.40;;;;;;;-0.18;100.00;100228.28;7391233;19;20201;-51
2022/11/21 11:21:13;;;;;;;11.77;6.03;;;;;;;-0.61;100.00;100240.16;7397782;19;20546;-56
2022/11/21 11:23:43;;;;;;;17.23;8.40;;;;;;;-0.55;100.00;100240.66;7389375;19;20202;-56
2022/11/21 11:26:23;;;;;;;20.30;8.80;;;;;;;-0.24;100.00;100232.88;7394304;19;20476;-60
2022/11/21 11:28:57;;;;;;;23.33;9.93;;;;;;;-0.05;100.00;100221.59;7391184;19;20190;-52
2022/11/21 11:31:26;;;;;;;33.97;13.82;;;;;;;0.20;100.00;100220.91;7393476;19;20138;-58
2022/11/21 11:33:57;;;;;;;18.73;9.23;;;;;;;0.32;100.00;100218.38;7391820;19;20746;-58
2022/11/21 11:36:38;;;;;;;17.20;8.98;;;;;;;0.48;100.00;100222.94;7396003;19;20131;-57
2022/11/21 11:39:15;;;;;;;16.33;8.60;;;;;;;0.33;100.00;100223.59;7391152;19;20671;-56
2022/11/21 11:47:40;;;;;;;15.85;7.95;;;;;;;0.44;100.00;100237.06;7392281;19;20475;-56
2022/11/21 11:50:14;;;;;;;18.17;8.20;;;;;;;0.53;100.00;100236.88;7391069;19;20194;-56